Ana Sayfa
METAR-TAF:

METAR-TAF

Havaalanları :

Clearfield-Lawrence Airport

Clearfield, Pensilvanya, Amerika Birleşik Devletleri

Enlem: 41-02-48N, Boylam: 078-24-42W, yükseklik: 462 m

Güncel hava durumu gözlemi

Rapor saat 19:54 UTC de 22 dakika önce yapıldı.
Rüzgar güneybatıdan 7 kt
Sıcaklık 26°C
Nem 58%
Basınç 1012 hPa
Görüş mesafesi: 16.1 km
Açık gökyüzü

METAR: KFIG 051954Z AUTO 23007KT 10SM CLR 26/17 A2989 RMK AO2 SLP112 T02560172

Saat: 16:16 (20:16 UTC)


TAF: eksik

4.000'den fazla havaalanı için hava durumu gözlemleri ve tahminleri (METAR ve TAF raporları).

Kullanılabilir istasyonlar harita üzerinde sarı ve kırmızı noktalarla gösterilir.

İstasyonun adını görmek için fareyi noktanın üzerinde gezdirin.

Sonrasında hava gözlem ve tahminlerini görmek için tıklayın.

Haritayı değiştirmek için: yaklaştırmak için siyah artı işaretli yeşil düğmeye ve uzaklaştırmak için de eksi işaretli düğmeye hızla tıklayın; bitişik haritalar için yeşil okları kullanın.


METAR-TAF: